createdAt,value
2017-07-15T00:00:56.783Z,8.38
2017-07-15T00:03:25.668Z,8.90
2017-07-15T00:05:54.603Z,9.07
2017-07-15T00:08:23.500Z,9.68
2017-07-15T00:10:53.155Z,10.43
2017-07-15T00:13:22.037Z,9.23
2017-07-15T00:15:50.936Z,9.45
2017-07-15T00:18:19.808Z,8.90
2017-07-15T00:20:48.660Z,9.70
2017-07-15T00:23:17.527Z,9.55
2017-07-15T00:25:46.429Z,9.00
2017-07-15T00:28:15.334Z,10.20
2017-07-15T00:30:44.220Z,9.25
2017-07-15T00:33:13.130Z,10.63
2017-07-15T00:35:42.806Z,10.05
2017-07-15T00:38:11.704Z,9.20
2017-07-15T00:40:40.606Z,10.93
2017-07-15T00:43:09.442Z,8.77
2017-07-15T00:45:38.310Z,10.90
2017-07-15T00:48:07.967Z,9.77
2017-07-15T00:50:36.870Z,11.10
2017-07-15T00:53:05.784Z,9.35
2017-07-15T00:55:34.680Z,11.43
2017-07-15T00:58:03.581Z,10.70
2017-07-15T01:00:33.253Z,12.20
2017-07-15T01:03:02.114Z,11.05
2017-07-15T01:05:31.009Z,10.80
2017-07-15T01:07:59.911Z,10.05
2017-07-15T01:10:28.822Z,11.10
2017-07-15T01:12:57.725Z,11.25
2017-07-15T01:15:26.630Z,10.43
2017-07-15T01:17:55.524Z,9.90
2017-07-15T01:20:24.416Z,11.30
2017-07-15T01:22:53.308Z,10.80
2017-07-15T01:25:22.209Z,10.43
2017-07-15T01:27:51.901Z,10.35
2017-07-15T01:30:20.787Z,10.75
2017-07-15T01:32:49.698Z,11.20
2017-07-15T01:35:19.366Z,10.90
2017-07-15T01:37:48.276Z,10.48
2017-07-15T01:40:17.184Z,11.75
2017-07-15T01:42:46.063Z,11.20
2017-07-15T01:45:14.969Z,10.80
2017-07-15T01:47:43.869Z,11.63
2017-07-15T01:50:13.184Z,12.85
2017-07-15T01:52:42.849Z,12.80
2017-07-15T01:55:11.748Z,11.90
2017-07-15T01:57:40.300Z,11.07
2017-07-15T02:00:08.869Z,11.73
2017-07-15T02:02:37.760Z,12.85
2017-07-15T02:05:06.690Z,11.68
2017-07-15T02:07:35.588Z,13.88
2017-07-15T02:10:04.488Z,12.70
2017-07-15T02:12:33.393Z,12.80
2017-07-15T02:15:02.288Z,12.45
2017-07-15T02:17:31.954Z,12.75
2017-07-15T02:20:00.820Z,12.85
2017-07-15T02:22:29.696Z,14.15
2017-07-15T02:24:59.374Z,12.40
2017-07-15T02:27:28.290Z,14.32
2017-07-15T02:29:57.961Z,13.70
2017-07-15T02:32:26.865Z,12.50
2017-07-15T02:34:55.760Z,12.70
2017-07-15T02:37:24.482Z,12.52
2017-07-15T02:39:54.170Z,13.20
2017-07-15T02:42:23.075Z,13.05
2017-07-15T02:44:52.748Z,11.10
2017-07-15T02:47:22.654Z,12.27
2017-07-15T02:49:51.556Z,13.38
2017-07-15T02:52:20.461Z,15.65
2017-07-15T02:54:49.360Z,15.50
2017-07-15T02:57:19.043Z,15.27
2017-07-15T02:59:47.929Z,16.00
2017-07-15T03:02:16.822Z,16.52
2017-07-15T03:04:45.690Z,15.40
2017-07-15T03:07:14.597Z,13.68
2017-07-15T03:09:43.510Z,14.40
2017-07-15T03:12:12.411Z,14.75
2017-07-15T03:14:41.319Z,14.00
2017-07-15T03:17:10.962Z,13.70
2017-07-15T03:19:39.181Z,14.10
2017-07-15T03:22:08.057Z,14.77
2017-07-15T03:24:36.961Z,13.40
2017-07-15T03:27:27.882Z,13.88
2017-07-15T03:29:56.786Z,15.07
2017-07-15T03:32:25.698Z,12.65
2017-07-15T03:34:54.575Z,13.90
2017-07-15T03:37:24.228Z,14.32
2017-07-15T03:39:52.786Z,15.85
2017-07-15T03:42:21.698Z,14.13
2017-07-15T03:44:50.592Z,16.08
2017-07-15T03:47:19.438Z,16.33
2017-07-15T03:49:48.330Z,16.23
2017-07-15T03:52:17.214Z,18.35
2017-07-15T03:54:46.114Z,15.77
2017-07-15T03:57:15.001Z,19.15
2017-07-15T03:59:43.892Z,18.30
2017-07-15T04:02:12.786Z,17.95
2017-07-15T04:04:42.413Z,16.92
2017-07-15T04:07:12.055Z,16.20
2017-07-15T04:09:40.923Z,17.02
2017-07-15T04:12:10.577Z,17.52
2017-07-15T04:14:39.485Z,17.20
2017-07-15T04:17:08.386Z,17.67
2017-07-15T04:19:37.283Z,16.50
2017-07-15T04:22:06.152Z,17.15
2017-07-15T04:24:35.065Z,17.02
2017-07-15T04:27:03.962Z,19.20
2017-07-15T04:29:33.642Z,15.05
2017-07-15T04:32:02.527Z,16.90
2017-07-15T04:34:31.428Z,17.30
2017-07-15T04:37:00.323Z,17.35
2017-07-15T04:39:29.198Z,17.73
2017-07-15T04:41:58.098Z,17.80
2017-07-15T04:44:26.960Z,18.85
2017-07-15T04:46:56.613Z,18.42
2017-07-15T04:49:25.505Z,18.00
2017-07-15T04:51:54.401Z,17.20
2017-07-15T04:54:23.302Z,18.10
2017-07-15T04:56:52.218Z,18.17
2017-07-15T04:59:21.880Z,17.85
2017-07-15T05:01:50.772Z,16.60
2017-07-15T05:04:19.661Z,16.25
2017-07-15T05:06:48.552Z,15.73
2017-07-15T05:09:17.417Z,14.13
2017-07-15T05:11:46.309Z,15.88
2017-07-15T05:14:15.179Z,15.90
2017-07-15T05:16:44.846Z,16.65
2017-07-15T05:19:13.754Z,16.05
2017-07-15T05:21:42.645Z,15.55
2017-07-15T05:24:11.547Z,17.12
2017-07-15T05:26:41.218Z,17.73
2017-07-15T05:29:10.121Z,17.52
2017-07-15T05:31:39.022Z,16.02
2017-07-15T05:34:07.904Z,16.42
2017-07-15T05:36:36.815Z,14.93
2017-07-15T05:39:05.365Z,14.35
2017-07-15T05:41:34.233Z,16.85
2017-07-15T05:44:03.142Z,13.75
2017-07-15T05:46:32.048Z,15.07
2017-07-15T05:49:00.966Z,15.18
2017-07-15T05:51:29.874Z,15.90
2017-07-15T05:53:59.522Z,14.25
2017-07-15T05:56:28.432Z,17.08
2017-07-15T05:58:57.339Z,16.55
2017-07-15T06:01:26.230Z,17.20
2017-07-15T06:03:55.099Z,15.38
2017-07-15T06:06:23.643Z,16.30
2017-07-15T06:08:52.543Z,15.68
2017-07-15T06:11:21.446Z,15.35
2017-07-15T06:13:50.342Z,16.62
2017-07-15T06:16:19.213Z,15.60
2017-07-15T06:18:48.126Z,16.33
2017-07-15T06:21:17.031Z,14.60
2017-07-15T06:23:45.921Z,14.50
2017-07-15T06:26:14.833Z,14.48
2017-07-15T06:28:43.732Z,12.27
2017-07-15T06:31:12.626Z,12.82
2017-07-15T06:33:41.497Z,13.20
2017-07-15T06:36:10.393Z,14.18
2017-07-15T06:38:40.394Z,14.30
2017-07-15T06:41:09.301Z,14.32
2017-07-15T06:43:38.197Z,13.40
2017-07-15T06:46:07.133Z,14.82
2017-07-15T06:48:36.044Z,13.62
2017-07-15T06:51:04.943Z,14.98
2017-07-15T06:53:33.854Z,14.57
2017-07-15T06:56:02.719Z,14.90
2017-07-15T06:58:31.581Z,13.38
2017-07-15T07:01:00.441Z,14.15
2017-07-15T07:03:29.341Z,14.20
2017-07-15T07:05:58.247Z,13.20
2017-07-15T07:08:27.150Z,12.90
2017-07-15T07:10:56.818Z,14.23
2017-07-15T07:13:25.682Z,13.48
2017-07-15T07:15:54.577Z,12.93
2017-07-15T07:18:23.485Z,12.80
2017-07-15T07:20:52.386Z,13.80
2017-07-15T07:23:21.281Z,13.13
2017-07-15T07:25:50.187Z,12.45
2017-07-15T07:28:19.102Z,13.23
2017-07-15T07:30:48.761Z,10.13
2017-07-15T07:33:17.656Z,10.77
2017-07-15T07:35:46.563Z,10.13
2017-07-15T07:38:15.460Z,9.68
2017-07-15T07:40:44.355Z,10.10
2017-07-15T07:43:13.214Z,9.50
2017-07-15T07:45:42.101Z,9.02
2017-07-15T07:48:11.006Z,10.90
2017-07-15T07:50:39.879Z,8.75
2017-07-15T07:53:08.753Z,7.62
2017-07-15T07:55:37.645Z,8.18
2017-07-15T07:58:06.533Z,8.40
2017-07-15T08:00:35.422Z,7.47
2017-07-15T08:03:05.070Z,7.93
2017-07-15T08:05:33.977Z,9.32
2017-07-15T08:08:02.839Z,9.30
2017-07-15T08:10:31.690Z,8.20
2017-07-15T08:13:00.538Z,7.22
2017-07-15T08:15:29.437Z,7.80
2017-07-15T08:17:58.325Z,7.75
2017-07-15T08:20:27.206Z,6.65
2017-07-15T08:22:56.090Z,6.95
2017-07-15T08:25:24.931Z,6.40
2017-07-15T08:27:53.830Z,7.53
2017-07-15T08:30:22.669Z,5.12
2017-07-15T08:32:51.540Z,6.30
2017-07-15T08:35:20.417Z,5.28
2017-07-15T08:37:49.268Z,6.57
2017-07-15T08:40:18.127Z,5.45
2017-07-15T08:42:47.022Z,5.20
2017-07-15T08:45:15.905Z,5.37
2017-07-15T08:47:44.784Z,4.60
2017-07-15T08:50:15.170Z,4.97
2017-07-15T08:52:44.048Z,4.90
2017-07-15T08:55:12.945Z,4.95
2017-07-15T08:57:41.839Z,5.10
2017-07-15T09:00:10.734Z,5.32
2017-07-15T09:02:39.617Z,5.03
2017-07-15T09:05:08.461Z,5.20
2017-07-15T09:07:38.114Z,4.68
2017-07-15T09:10:07.003Z,4.35
2017-07-15T09:12:35.892Z,5.10
2017-07-15T09:15:04.780Z,4.10
2017-07-15T09:17:33.662Z,4.37
2017-07-15T09:20:03.997Z,4.70
2017-07-15T09:22:32.869Z,4.35
2017-07-15T09:25:01.756Z,3.90
2017-07-15T09:27:30.651Z,5.05
2017-07-15T09:29:59.520Z,4.22
2017-07-15T09:32:29.148Z,4.40
2017-07-15T09:34:58.043Z,3.95
2017-07-15T09:37:26.940Z,4.20
2017-07-15T09:39:56.406Z,4.28
2017-07-15T09:42:25.286Z,4.93
2017-07-15T09:44:54.224Z,4.28
2017-07-15T09:47:23.118Z,3.87
2017-07-15T09:49:51.993Z,3.55
2017-07-15T09:52:20.876Z,3.70
2017-07-15T09:54:49.764Z,3.72
2017-07-15T09:57:19.411Z,3.70
2017-07-15T09:59:48.330Z,2.60
2017-07-15T10:02:17.203Z,3.20
2017-07-15T10:04:46.100Z,3.10
2017-07-15T10:07:14.954Z,3.67
2017-07-15T10:09:43.801Z,3.25
2017-07-15T10:12:12.701Z,5.53
2017-07-15T10:14:41.576Z,3.80
2017-07-15T10:17:10.467Z,3.67
2017-07-15T10:19:39.349Z,3.17
2017-07-15T10:22:08.229Z,3.47
2017-07-15T10:24:37.111Z,3.05
2017-07-15T10:27:05.992Z,3.35
2017-07-15T10:29:34.878Z,3.17
2017-07-15T10:32:03.761Z,3.25
2017-07-15T10:34:32.614Z,3.50
2017-07-15T10:37:01.492Z,3.08
2017-07-15T10:39:30.389Z,3.67
2017-07-15T10:41:59.283Z,3.17
2017-07-15T10:44:28.164Z,3.20
2017-07-15T10:46:57.108Z,2.85
2017-07-15T10:49:25.994Z,3.35
2017-07-15T10:54:39.491Z,3.40
2017-07-15T10:57:08.385Z,3.12
2017-07-15T10:59:37.265Z,3.53
2017-07-15T11:02:06.148Z,3.83
2017-07-15T11:04:35.023Z,3.55
2017-07-15T11:07:03.913Z,3.28
2017-07-15T11:09:33.570Z,3.60
2017-07-15T11:12:02.619Z,2.95
2017-07-15T11:14:31.514Z,3.00
2017-07-15T11:17:00.696Z,3.45
2017-07-15T11:19:30.353Z,2.95
2017-07-15T11:21:59.243Z,3.15
2017-07-15T11:24:28.111Z,3.40
2017-07-15T11:26:57.013Z,2.85
2017-07-15T11:29:25.901Z,2.75
2017-07-15T11:31:54.777Z,3.35
2017-07-15T11:34:23.681Z,2.72
2017-07-15T11:36:52.566Z,2.53
2017-07-15T11:39:21.460Z,2.70
2017-07-15T11:41:50.345Z,2.72
2017-07-15T11:44:19.238Z,2.70
2017-07-15T11:46:48.133Z,2.97
2017-07-15T11:49:17.031Z,2.78
2017-07-15T11:51:45.923Z,2.78
2017-07-15T11:54:14.804Z,2.95
2017-07-15T11:56:46.594Z,2.58
2017-07-15T11:59:15.507Z,3.10
2017-07-15T12:01:44.389Z,3.33
2017-07-15T12:04:13.282Z,2.95
2017-07-15T12:06:42.180Z,2.40
2017-07-15T12:09:11.078Z,2.80
2017-07-15T12:11:39.928Z,2.53
2017-07-15T12:14:08.810Z,2.70
2017-07-15T12:16:37.703Z,2.70
2017-07-15T12:19:06.588Z,2.97
2017-07-15T12:21:35.474Z,3.17
2017-07-15T12:24:05.089Z,3.40
2017-07-15T12:26:33.981Z,2.90
2017-07-15T12:29:02.867Z,3.05
2017-07-15T12:31:31.762Z,3.50
2017-07-15T12:34:00.641Z,2.70
2017-07-15T12:36:30.294Z,3.12
2017-07-15T12:38:59.148Z,3.60
2017-07-15T12:41:28.019Z,3.45
2017-07-15T12:43:56.911Z,4.15
2017-07-15T12:46:25.831Z,3.42
2017-07-15T12:48:54.708Z,4.00
2017-07-15T12:51:24.354Z,4.30
2017-07-15T12:53:53.248Z,4.90
2017-07-15T12:56:22.137Z,5.32
2017-07-15T12:58:51.010Z,5.15
2017-07-15T13:01:19.894Z,4.85
2017-07-15T13:03:49.554Z,4.55
2017-07-15T13:06:18.449Z,4.65
2017-07-15T13:08:47.343Z,4.28
2017-07-15T13:11:16.216Z,4.43
2017-07-15T13:13:45.111Z,3.87
2017-07-15T13:16:14.003Z,4.10
2017-07-15T13:18:42.885Z,4.32
2017-07-15T13:21:12.914Z,4.07
2017-07-15T13:23:44.523Z,3.92
2017-07-15T14:54:13.564Z,3.00
2017-07-15T14:56:42.457Z,3.22
2017-07-15T14:59:12.301Z,3.10
2017-07-15T15:01:41.198Z,3.17
2017-07-15T15:04:10.080Z,3.22
2017-07-15T15:06:38.965Z,2.72
2017-07-15T15:09:07.856Z,3.03
2017-07-15T15:11:36.741Z,3.10
2017-07-15T15:14:05.649Z,2.80
2017-07-15T15:16:34.533Z,3.67
2017-07-15T15:19:03.455Z,2.50
2017-07-15T15:21:32.328Z,2.87
2017-07-15T15:24:01.203Z,2.67
2017-07-15T15:26:30.112Z,2.85
2017-07-15T15:28:59.005Z,3.15
2017-07-15T15:31:27.911Z,3.17
2017-07-15T15:33:56.807Z,2.85
2017-07-15T15:36:25.680Z,2.25
2017-07-15T15:38:54.598Z,2.92
2017-07-15T15:41:25.651Z,2.85
2017-07-15T15:43:55.316Z,2.28
2017-07-15T15:46:24.513Z,2.87
2017-07-15T15:48:53.402Z,2.25
2017-07-15T15:51:22.287Z,2.35
2017-07-15T15:53:51.165Z,2.35
2017-07-15T15:56:20.389Z,2.70
2017-07-15T15:58:49.279Z,2.75
2017-07-15T16:01:18.177Z,2.70
2017-07-15T16:03:47.069Z,3.30
2017-07-15T16:06:15.949Z,3.00
2017-07-15T16:08:44.850Z,3.30
2017-07-15T16:11:13.736Z,3.50
2017-07-15T16:13:42.624Z,3.25
2017-07-15T16:16:11.518Z,6.00
2017-07-15T16:18:40.418Z,5.15
2017-07-15T16:21:10.566Z,3.67
2017-07-15T16:23:41.017Z,7.35
2017-07-15T16:26:09.913Z,4.00
2017-07-15T16:28:38.768Z,4.47
2017-07-15T16:31:07.657Z,3.62
2017-07-15T16:33:36.544Z,3.45
2017-07-15T16:36:05.929Z,3.10
2017-07-15T16:38:34.882Z,5.45
2017-07-15T16:41:03.781Z,3.35
2017-07-15T16:43:32.675Z,3.62
2017-07-15T16:46:01.564Z,3.45
2017-07-15T16:48:30.445Z,4.03
2017-07-15T16:51:00.110Z,3.78
2017-07-15T16:53:29.001Z,4.12
2017-07-15T16:55:57.877Z,4.10
2017-07-15T16:58:27.745Z,4.30
2017-07-15T17:00:57.410Z,4.95
2017-07-15T17:03:26.296Z,5.60
2017-07-15T17:05:55.187Z,5.55
2017-07-15T17:08:24.069Z,4.72
2017-07-15T17:10:52.961Z,5.03
2017-07-15T17:13:21.854Z,5.32
2017-07-15T17:15:50.731Z,5.35
2017-07-15T17:18:19.645Z,4.15
2017-07-15T17:20:48.553Z,12.57
2017-07-15T17:23:17.454Z,7.55
2017-07-15T17:25:46.333Z,4.55
2017-07-15T17:28:15.221Z,4.18
2017-07-15T17:30:44.118Z,5.15
2017-07-15T17:33:13.011Z,4.80
2017-07-15T17:35:41.892Z,4.35
2017-07-15T17:38:10.745Z,4.82
2017-07-15T17:40:39.634Z,6.20
2017-07-15T17:43:08.480Z,5.00
2017-07-15T17:45:38.299Z,5.50
2017-07-15T17:48:06.849Z,4.65
2017-07-15T17:50:35.734Z,5.50
2017-07-15T17:53:04.609Z,5.30
2017-07-15T17:55:33.486Z,5.05
2017-07-15T17:58:02.356Z,6.62
2017-07-15T18:00:31.245Z,5.85
2017-07-15T18:03:00.239Z,6.00
2017-07-15T18:05:29.121Z,5.85
2017-07-15T18:07:58.101Z,7.30
2017-07-15T18:10:26.979Z,7.93
2017-07-15T18:12:55.862Z,7.15
2017-07-15T18:15:24.745Z,7.43
2017-07-15T18:17:53.630Z,7.53
2017-07-15T18:20:22.500Z,7.28
2017-07-15T18:22:51.393Z,7.55
2017-07-15T18:25:21.194Z,9.38
2017-07-15T18:27:50.095Z,7.25
2017-07-15T18:30:18.981Z,6.75
2017-07-15T18:32:48.625Z,7.37
2017-07-15T18:35:18.354Z,8.18
2017-07-15T18:38:28.765Z,8.40
2017-07-15T18:43:52.442Z,7.53
2017-07-15T18:49:18.950Z,7.18
2017-07-15T18:51:47.821Z,7.78
2017-07-15T18:54:17.470Z,6.40
2017-07-15T18:56:46.369Z,7.62
2017-07-15T18:59:15.472Z,7.00
2017-07-15T19:01:45.327Z,7.80
2017-07-15T19:04:14.273Z,8.52
2017-07-15T19:06:43.235Z,8.18
2017-07-15T19:09:12.254Z,8.60
2017-07-15T19:11:41.226Z,7.85
2017-07-15T19:14:18.417Z,7.37
2017-07-15T19:16:47.343Z,7.65
2017-07-15T19:19:17.073Z,8.48
2017-07-15T19:21:46.736Z,8.52
2017-07-15T19:24:15.605Z,8.52
2017-07-15T19:26:44.497Z,8.20
2017-07-15T19:29:13.391Z,8.50
2017-07-15T19:31:42.239Z,7.70
2017-07-15T19:34:11.083Z,8.20
2017-07-15T19:36:39.973Z,8.40
2017-07-15T19:39:09.617Z,7.80
2017-07-15T19:41:38.506Z,7.70
2017-07-15T19:44:07.392Z,7.50
2017-07-15T19:46:36.286Z,8.70
2017-07-15T19:49:05.174Z,7.20
2017-07-15T19:51:34.031Z,6.80
2017-07-15T19:54:02.918Z,7.05
2017-07-15T19:56:31.810Z,6.35
2017-07-15T19:59:00.695Z,6.90
2017-07-15T20:01:30.341Z,5.30
2017-07-15T20:03:59.229Z,7.60
2017-07-15T20:06:28.113Z,7.37
2017-07-15T20:08:56.982Z,5.85
2017-07-15T20:11:25.873Z,5.80
2017-07-15T20:13:54.759Z,7.90
2017-07-15T20:16:23.638Z,7.45
2017-07-15T20:18:53.321Z,7.50
2017-07-15T20:21:22.206Z,7.07
2017-07-15T20:23:51.184Z,7.85
2017-07-15T20:26:20.195Z,8.30
2017-07-15T20:28:49.101Z,7.70
2017-07-15T20:31:17.998Z,8.65
2017-07-15T20:33:46.958Z,8.60
2017-07-15T20:36:21.347Z,9.90
2017-07-15T20:38:50.775Z,9.60
2017-07-15T20:41:19.619Z,10.13
2017-07-15T20:43:49.861Z,11.10
2017-07-15T20:46:18.823Z,11.00
2017-07-15T20:48:48.505Z,11.27
2017-07-15T20:51:17.428Z,9.65
2017-07-15T20:53:53.163Z,10.80
2017-07-15T20:56:22.100Z,10.20
2017-07-15T20:58:52.078Z,10.30
2017-07-15T21:01:21.142Z,10.77
2017-07-15T21:03:51.611Z,10.02
2017-07-15T21:06:21.350Z,11.38
2017-07-15T21:08:50.426Z,11.27
2017-07-15T21:11:19.446Z,10.65
2017-07-15T21:13:48.468Z,11.93
2017-07-15T21:16:17.572Z,10.27
2017-07-15T21:18:47.612Z,10.65
2017-07-15T21:21:16.815Z,10.98
2017-07-15T21:23:46.601Z,10.50
2017-07-15T21:26:15.635Z,9.93
2017-07-15T21:28:45.551Z,11.12
2017-07-15T21:31:14.449Z,10.63
2017-07-15T21:33:44.128Z,10.52
2017-07-15T21:36:13.020Z,9.80
2017-07-15T21:38:41.971Z,10.55
2017-07-15T21:41:10.882Z,10.60
2017-07-15T21:43:39.790Z,10.15
2017-07-15T21:46:08.653Z,10.18
2017-07-15T21:48:37.547Z,11.52
2017-07-15T21:51:06.440Z,11.15
2017-07-15T21:53:35.336Z,10.98
2017-07-15T21:56:04.229Z,16.65
2017-07-15T21:58:33.123Z,11.18
2017-07-15T22:01:03.635Z,10.63
2017-07-15T22:03:32.529Z,11.12
2017-07-15T22:06:01.429Z,10.75
2017-07-15T22:08:30.285Z,12.15
2017-07-15T22:10:59.965Z,10.93
2017-07-15T22:13:28.864Z,12.15
2017-07-15T22:15:57.756Z,11.85
2017-07-15T22:18:26.659Z,11.40
2017-07-15T22:20:56.321Z,12.23
2017-07-15T22:23:25.215Z,12.95
2017-07-15T22:25:54.107Z,12.63
2017-07-15T22:28:23.011Z,11.85
2017-07-15T22:30:51.989Z,13.48
2017-07-15T22:33:21.758Z,12.57
2017-07-15T22:35:51.452Z,13.10
2017-07-15T22:38:20.372Z,14.38
2017-07-15T22:40:49.282Z,12.02
2017-07-15T22:43:18.191Z,14.05
2017-07-15T22:45:47.116Z,12.77
2017-07-15T22:48:16.675Z,11.80
2017-07-15T22:50:45.594Z,13.82
2017-07-15T22:53:14.513Z,12.10
2017-07-15T22:55:43.423Z,12.40
2017-07-15T22:58:12.339Z,13.40
2017-07-15T23:00:41.244Z,13.10
2017-07-15T23:03:10.911Z,13.40
2017-07-15T23:05:40.604Z,14.40
2017-07-15T23:08:09.810Z,13.05
2017-07-15T23:10:39.160Z,13.50
2017-07-15T23:13:08.068Z,13.35
2017-07-15T23:15:36.988Z,13.00
2017-07-15T23:18:05.861Z,12.23
2017-07-15T23:20:34.777Z,13.07
2017-07-15T23:23:03.693Z,12.50
2017-07-15T23:25:33.368Z,12.40
2017-07-15T23:28:02.280Z,12.15
2017-07-15T23:30:31.971Z,13.38
2017-07-15T23:33:00.904Z,12.15
2017-07-15T23:35:30.579Z,9.90
2017-07-15T23:37:59.492Z,11.55
2017-07-15T23:40:29.182Z,10.93
2017-07-15T23:42:58.088Z,9.98
2017-07-15T23:45:26.993Z,10.95
2017-07-15T23:47:56.668Z,10.50
2017-07-15T23:50:25.569Z,11.32
2017-07-15T23:52:55.173Z,10.98
2017-07-15T23:55:24.085Z,10.85
2017-07-15T23:57:53.758Z,10.70
